Time;durP1;ratioP1;P1;durP2;ratioP2;P2;SDS_P1;SDS_P2;PMS_P1;PMS_P2;Temp;Humidity;BMP_temperature;BMP_pressure;BME280_temperature;BME280_humidity;BME280_pressure;Samples;Min_cycle;Max_cycle;Signal;HPM_P1;HPM_P2
2021/03/05 00:00:22;;;;;;;19.63;13.57;;;;;;;;;;1035410;28;20080;-54
2021/03/05 00:00:52;;;;;;;20.47;12.77;;;;;;;;;;1035588;28;20026;-54
2021/03/05 00:01:23;;;;;;;19.37;12.13;;;;;;;;;;1034982;28;20440;-50
2021/03/05 00:01:53;;;;;;;20.20;12.43;;;;;;;;;;1034466;28;20014;-50
2021/03/05 00:02:23;;;;;;;17.60;12.73;;;;;;;;;;1035411;28;20022;-49
2021/03/05 00:02:54;;;;;;;23.27;12.33;;;;;;;;;;1035368;28;20014;-52
2021/03/05 00:03:24;;;;;;;18.27;11.33;;;;;;;;;;1034415;28;20022;-51
2021/03/05 00:03:54;;;;;;;20.17;13.40;;;;;;;;;;1034085;28;20078;-51
2021/03/05 00:04:24;;;;;;;24.33;12.53;;;;;;;;;;1031049;28;20142;-51
2021/03/05 00:04:55;;;;;;;19.97;12.93;;;;;;;;;;1035495;28;20032;-51
2021/03/05 00:05:25;;;;;;;20.00;12.60;;;;;;;;;;1034697;28;20460;-49
2021/03/05 00:05:55;;;;;;;15.33;11.23;;;;;;;;;;1034155;28;20077;-51
2021/03/05 00:06:25;;;;;;;21.60;13.40;;;;;;;;;;1034897;28;20010;-51
2021/03/05 00:06:56;;;;;;;18.17;12.30;;;;;;;;;;1035552;28;20446;-54
2021/03/05 00:07:26;;;;;;;18.47;13.17;;;;;;;;;;1034906;28;20058;-53
2021/03/05 00:07:56;;;;;;;27.07;12.63;;;;;;;;;;1033728;28;20468;-54
2021/03/05 00:08:26;;;;;;;21.20;13.27;;;;;;;;;;1034238;28;20056;-54
2021/03/05 00:08:57;;;;;;;21.50;14.07;;;;;;;;;;1035364;28;20054;-54
2021/03/05 00:09:27;;;;;;;19.40;12.10;;;;;;;;;;1034901;28;20546;-54
2021/03/05 00:09:57;;;;;;;17.83;12.23;;;;;;;;;;1033108;28;20530;-54
2021/03/05 00:10:29;;;;;;;20.43;12.83;;;;;;;;;;1034660;28;20601;-54
2021/03/05 00:10:59;;;;;;;19.15;11.40;;;;;;;;;;1033786;28;20018;-54
2021/03/05 00:11:29;;;;;;;19.50;11.73;;;;;;;;;;1034493;28;20093;-54
2021/03/05 00:11:59;;;;;;;15.80;11.83;;;;;;;;;;1035487;28;20093;-54
2021/03/05 00:12:30;;;;;;;21.70;12.93;;;;;;;;;;1035549;28;20010;-54
2021/03/05 00:13:00;;;;;;;16.70;11.70;;;;;;;;;;1034348;28;20514;-53
2021/03/05 00:13:30;;;;;;;17.23;12.20;;;;;;;;;;1033375;28;20014;-54
2021/03/05 00:14:01;;;;;;;18.37;12.33;;;;;;;;;;1034942;28;20013;-54
2021/03/05 00:14:31;;;;;;;17.00;11.07;;;;;;;;;;1035454;28;20009;-56
2021/03/05 00:15:01;;;;;;;17.67;11.77;;;;;;;;;;1034402;28;20035;-55
2021/03/05 00:15:33;;;;;;;19.50;12.77;;;;;;;;;;1033920;28;20007;-55
2021/03/05 00:16:03;;;;;;;18.40;12.40;;;;;;;;;;1035013;28;20030;-54
2021/03/05 00:16:33;;;;;;;18.30;11.97;;;;;;;;;;1035614;28;20455;-55
2021/03/05 00:17:03;;;;;;;17.93;11.07;;;;;;;;;;1032906;28;20414;-54
2021/03/05 00:17:34;;;;;;;13.93;9.90;;;;;;;;;;1035585;28;20655;-54
2021/03/05 00:18:04;;;;;;;13.73;9.57;;;;;;;;;;1034721;28;20126;-55
2021/03/05 00:18:34;;;;;;;14.63;9.37;;;;;;;;;;1034021;28;20010;-56
2021/03/05 00:19:05;;;;;;;16.03;9.77;;;;;;;;;;1034974;28;20041;-51
2021/03/05 00:19:35;;;;;;;14.40;9.63;;;;;;;;;;1035091;28;20374;-55
2021/03/05 00:20:10;;;;;;;18.30;10.50;;;;;;;;;;1032919;28;20018;-54
2021/03/05 00:20:41;;;;;;;12.65;9.43;;;;;;;;;;1034674;28;20072;-53
2021/03/05 00:21:11;;;;;;;12.40;9.85;;;;;;;;;;1034841;28;20483;-53
2021/03/05 00:21:41;;;;;;;20.33;11.87;;;;;;;;;;1034787;28;20072;-53
2021/03/05 00:22:12;;;;;;;16.20;11.40;;;;;;;;;;1035569;28;20006;-54
2021/03/05 00:22:42;;;;;;;17.70;11.87;;;;;;;;;;1034925;28;20456;-54
2021/03/05 00:23:13;;;;;;;16.33;10.53;;;;;;;;;;1031164;28;20150;-53
2021/03/05 00:23:43;;;;;;;14.03;9.80;;;;;;;;;;1030842;28;20049;-55
2021/03/05 00:24:13;;;;;;;15.37;9.77;;;;;;;;;;1035734;28;20129;-54
2021/03/05 00:24:43;;;;;;;14.97;9.70;;;;;;;;;;1033759;28;20014;-54
2021/03/05 00:25:14;;;;;;;17.33;10.27;;;;;;;;;;1035318;28;20823;-54
2021/03/05 00:25:44;;;;;;;12.80;9.40;;;;;;;;;;1035457;28;20022;-53
2021/03/05 00:26:14;;;;;;;18.13;11.13;;;;;;;;;;1035394;28;20019;-54
2021/03/05 00:26:44;;;;;;;14.70;9.43;;;;;;;;;;1035256;28;20553;-55
2021/03/05 00:27:15;;;;;;;14.40;8.97;;;;;;;;;;1034823;28;20029;-52
2021/03/05 00:27:45;;;;;;;12.50;8.30;;;;;;;;;;1033799;28;20387;-53
2021/03/05 00:28:18;;;;;;;15.27;9.20;;;;;;;;;;1034512;28;20014;-49
2021/03/05 00:28:48;;;;;;;14.23;9.63;;;;;;;;;;1033854;28;20010;-57
2021/03/05 00:29:19;;;;;;;17.23;8.97;;;;;;;;;;1033639;28;20069;-55
2021/03/05 00:29:49;;;;;;;16.50;9.37;;;;;;;;;;1033886;28;20463;-54
2021/03/05 00:30:19;;;;;;;13.60;9.03;;;;;;;;;;1033690;28;20014;-54
2021/03/05 00:30:50;;;;;;;11.63;9.10;;;;;;;;;;1034301;28;20410;-56
2021/03/05 00:31:20;;;;;;;15.73;10.07;;;;;;;;;;1031764;28;20010;-56
2021/03/05 00:31:56;;;;;;;12.20;9.20;;;;;;;;;;1030253;28;20027;-53
2021/03/05 00:32:26;;;;;;;16.33;9.50;;;;;;;;;;1035228;28;20105;-49
2021/03/05 00:32:57;;;;;;;11.27;8.87;;;;;;;;;;1035249;28;20092;-50
2021/03/05 00:33:27;;;;;;;15.73;9.60;;;;;;;;;;1035489;28;20101;-51
2021/03/05 00:33:57;;;;;;;12.60;8.67;;;;;;;;;;1035650;28;20009;-50
2021/03/05 00:34:27;;;;;;;12.90;8.50;;;;;;;;;;1035221;28;20029;-51
2021/03/05 00:34:58;;;;;;;14.27;9.20;;;;;;;;;;1035701;28;20420;-50
2021/03/05 00:35:28;;;;;;;14.43;9.73;;;;;;;;;;1034989;28;20023;-50
2021/03/05 00:35:58;;;;;;;17.57;10.00;;;;;;;;;;1035580;28;20018;-52
2021/03/05 00:36:28;;;;;;;15.50;9.83;;;;;;;;;;1034756;28;20022;-52
2021/03/05 00:36:59;;;;;;;16.13;9.87;;;;;;;;;;1035688;28;20014;-50
2021/03/05 00:37:29;;;;;;;13.63;9.13;;;;;;;;;;1035206;28;20029;-50
2021/03/05 00:37:59;;;;;;;13.13;8.63;;;;;;;;;;1035407;28;20018;-48
2021/03/05 00:38:29;;;;;;;14.30;9.70;;;;;;;;;;1035684;28;20093;-52
2021/03/05 00:39:00;;;;;;;15.40;10.00;;;;;;;;;;1034061;28;20015;-50
2021/03/05 00:39:30;;;;;;;13.27;9.00;;;;;;;;;;1034305;28;20029;-60
2021/03/05 00:40:00;;;;;;;14.10;9.33;;;;;;;;;;1035016;28;20454;-54
2021/03/05 00:40:31;;;;;;;15.13;9.43;;;;;;;;;;1031057;28;20030;-50
2021/03/05 00:41:01;;;;;;;16.07;10.27;;;;;;;;;;1032296;28;20101;-50
2021/03/05 00:41:31;;;;;;;15.00;9.73;;;;;;;;;;1026833;28;20030;-52
2021/03/05 00:42:04;;;;;;;15.53;10.00;;;;;;;;;;1030759;28;20153;-50
2021/03/05 00:42:34;;;;;;;14.38;9.63;;;;;;;;;;1029510;28;20046;-51
2021/03/05 00:43:04;;;;;;;12.10;9.10;;;;;;;;;;1030878;28;20112;-50
2021/03/05 00:43:35;;;;;;;16.93;10.00;;;;;;;;;;1033910;28;20763;-50
2021/03/05 00:44:05;;;;;;;15.53;9.43;;;;;;;;;;1033212;28;20027;-53
2021/03/05 00:44:38;;;;;;;15.50;10.70;;;;;;;;;;1035180;28;20032;-55
2021/03/05 00:45:09;;;;;;;17.33;10.30;;;;;;;;;;1031295;28;20366;-51
2021/03/05 00:45:39;;;;;;;14.30;10.40;;;;;;;;;;1030333;28;20038;-52
2021/03/05 00:46:10;;;;;;;16.93;10.40;;;;;;;;;;1035406;28;20433;-50
2021/03/05 00:46:40;;;;;;;17.63;10.40;;;;;;;;;;1034387;28;20111;-50
2021/03/05 00:47:10;;;;;;;16.97;10.33;;;;;;;;;;1035624;28;20014;-51
2021/03/05 00:47:41;;;;;;;16.67;10.57;;;;;;;;;;1035878;28;21435;-56
2021/03/05 00:48:11;;;;;;;17.10;10.30;;;;;;;;;;1034958;28;20030;-51
2021/03/05 00:48:44;;;;;;;13.87;9.40;;;;;;;;;;1034097;28;20018;-50
2021/03/05 00:49:14;;;;;;;18.35;10.57;;;;;;;;;;1032548;28;20046;-52
2021/03/05 00:49:45;;;;;;;14.27;9.43;;;;;;;;;;1032752;28;20339;-50
2021/03/05 00:50:16;;;;;;;15.67;10.53;;;;;;;;;;1033316;28;20042;-52
2021/03/05 00:50:46;;;;;;;18.67;10.70;;;;;;;;;;1033042;28;20238;-50
2021/03/05 00:51:17;;;;;;;15.90;10.70;;;;;;;;;;1032968;28;20269;-53
2021/03/05 00:51:47;;;;;;;13.17;10.17;;;;;;;;;;1032828;28;20464;-49
2021/03/05 00:52:17;;;;;;;13.57;10.07;;;;;;;;;;1032992;28;20025;-50
2021/03/05 00:52:50;;;;;;;16.80;10.00;;;;;;;;;;1032925;28;20015;-50
2021/03/05 00:53:20;;;;;;;13.90;9.73;;;;;;;;;;1032294;28;20434;-49
2021/03/05 00:53:50;;;;;;;17.83;10.10;;;;;;;;;;1030540;28;20027;-50
2021/03/05 00:54:20;;;;;;;12.70;9.50;;;;;;;;;;1031847;28;20018;-52
2021/03/05 00:54:51;;;;;;;13.33;10.27;;;;;;;;;;1030024;28;20057;-51
2021/03/05 00:55:24;;;;;;;15.57;9.93;;;;;;;;;;1035111;28;20020;-51
2021/03/05 00:55:57;;;;;;;13.98;10.27;;;;;;;;;;1035418;28;20018;-49
2021/03/05 00:56:28;;;;;;;18.17;9.83;;;;;;;;;;1036118;28;20039;-49
2021/03/05 00:56:58;;;;;;;14.50;10.47;;;;;;;;;;1033148;28;20051;-50
2021/03/05 00:57:28;;;;;;;16.60;9.70;;;;;;;;;;1032557;28;20136;-50
2021/03/05 00:57:58;;;;;;;13.40;10.07;;;;;;;;;;1032655;28;20368;-50
2021/03/05 00:58:29;;;;;;;15.70;10.63;;;;;;;;;;1032318;28;20026;-54
2021/03/05 00:58:59;;;;;;;15.17;10.30;;;;;;;;;;1032523;28;20093;-52
2021/03/05 00:59:29;;;;;;;15.57;10.60;;;;;;;;;;1032309;28;20570;-49
2021/03/05 00:59:59;;;;;;;15.50;9.37;;;;;;;;;;1032567;28;20105;-52
2021/03/05 01:00:29;;;;;;;17.17;9.13;;;;;;;;;;1032624;28;20080;-51
2021/03/05 01:01:00;;;;;;;15.30;8.93;;;;;;;;;;1033002;28;20010;-49
2021/03/05 01:01:30;;;;;;;11.83;9.00;;;;;;;;;;1032612;28;20380;-50
2021/03/05 01:02:00;;;;;;;14.60;9.57;;;;;;;;;;1032526;28;20015;-52
2021/03/05 01:02:31;;;;;;;14.13;9.20;;;;;;;;;;1030911;28;20140;-49
2021/03/05 01:03:01;;;;;;;14.33;9.07;;;;;;;;;;1028473;28;20019;-51
2021/03/05 01:03:31;;;;;;;12.57;8.50;;;;;;;;;;1028747;28;20030;-51
2021/03/05 01:04:01;;;;;;;15.47;9.27;;;;;;;;;;1029287;28;20065;-48
2021/03/05 01:04:32;;;;;;;11.97;8.97;;;;;;;;;;1033287;28;20018;-49
2021/03/05 01:05:03;;;;;;;13.50;8.80;;;;;;;;;;1033041;28;20367;-51
2021/03/05 01:05:33;;;;;;;13.75;8.45;;;;;;;;;;1034850;28;20010;-50
2021/03/05 01:06:04;;;;;;;15.07;8.87;;;;;;;;;;1030314;28;20034;-54
2021/03/05 01:06:46;;;;;;;15.23;8.10;;;;;;;;;;1032427;28;20411;-50
2021/03/05 01:07:17;;;;;;;13.63;8.85;;;;;;;;;;1029422;28;20022;-52
2021/03/05 01:07:47;;;;;;;12.60;8.63;;;;;;;;;;1033253;28;20368;-52
2021/03/05 01:08:17;;;;;;;14.43;9.20;;;;;;;;;;1034165;28;20026;-50
2021/03/05 01:08:48;;;;;;;12.77;8.70;;;;;;;;;;1033930;28;20016;-52
2021/03/05 01:09:18;;;;;;;12.70;8.83;;;;;;;;;;1033169;28;20069;-53
2021/03/05 01:09:51;;;;;;;13.50;8.45;;;;;;;;;;1032541;28;20049;-50
2021/03/05 01:10:22;;;;;;;10.32;8.40;;;;;;;;;;1032496;28;20014;-52
2021/03/05 01:10:52;;;;;;;8.93;6.83;;;;;;;;;;1029970;28;20109;-52
2021/03/05 01:11:26;;;;;;;11.18;8.15;;;;;;;;;;1031049;28;20050;-52
2021/03/05 01:11:56;;;;;;;16.00;7.90;;;;;;;;;;1033004;28;20403;-51
2021/03/05 01:12:26;;;;;;;9.93;7.50;;;;;;;;;;1032315;28;20069;-52
2021/03/05 01:12:56;;;;;;;12.10;7.47;;;;;;;;;;1032503;28;20412;-50
2021/03/05 01:13:27;;;;;;;9.70;7.20;;;;;;;;;;1032409;28;20376;-50
2021/03/05 01:13:57;;;;;;;10.87;8.20;;;;;;;;;;1032848;28;20011;-49
2021/03/05 01:14:27;;;;;;;11.87;7.47;;;;;;;;;;1032593;28;20022;-50
2021/03/05 01:14:58;;;;;;;10.53;7.70;;;;;;;;;;1033085;28;20105;-52
2021/03/05 01:15:28;;;;;;;10.77;7.40;;;;;;;;;;1033100;28;20050;-51
2021/03/05 01:15:58;;;;;;;11.67;7.67;;;;;;;;;;1033107;28;20101;-53
2021/03/05 01:16:29;;;;;;;9.07;7.23;;;;;;;;;;1032945;28;21523;-49
2021/03/05 01:16:59;;;;;;;12.00;7.17;;;;;;;;;;1034973;28;20440;-49
2021/03/05 01:17:29;;;;;;;9.90;7.40;;;;;;;;;;1035099;28;20093;-51
2021/03/05 01:18:00;;;;;;;10.23;7.37;;;;;;;;;;1035481;28;20045;-52
2021/03/05 01:18:30;;;;;;;10.53;7.27;;;;;;;;;;1035021;28;20006;-52
2021/03/05 01:19:00;;;;;;;10.67;7.00;;;;;;;;;;1034848;28;20061;-53
2021/03/05 01:19:31;;;;;;;9.47;6.40;;;;;;;;;;1031271;28;20335;-49
2021/03/05 01:20:04;;;;;;;10.87;7.13;;;;;;;;;;1030983;28;20552;-49
2021/03/05 01:20:34;;;;;;;10.02;7.22;;;;;;;;;;1033857;28;20373;-53
2021/03/05 01:21:04;;;;;;;9.03;6.70;;;;;;;;;;1030036;28;20034;-49
2021/03/05 01:21:35;;;;;;;9.53;7.37;;;;;;;;;;1031544;28;20062;-49
2021/03/05 01:22:05;;;;;;;11.83;6.67;;;;;;;;;;1030685;28;20018;-52
2021/03/05 01:22:36;;;;;;;11.30;7.30;;;;;;;;;;1026766;28;20015;-58
2021/03/05 01:23:06;;;;;;;13.13;7.67;;;;;;;;;;1028504;28;20459;-50
2021/03/05 01:23:36;;;;;;;12.23;7.20;;;;;;;;;;1029296;28;20155;-52
2021/03/05 01:24:07;;;;;;;8.30;6.53;;;;;;;;;;1032197;28;20018;-49
2021/03/05 01:24:37;;;;;;;8.63;6.53;;;;;;;;;;1035227;28;20010;-49
2021/03/05 01:25:08;;;;;;;9.43;7.23;;;;;;;;;;1034539;28;20011;-49
2021/03/05 01:25:38;;;;;;;9.98;7.05;;;;;;;;;;1033856;28;20014;-52
2021/03/05 01:26:10;;;;;;;9.30;6.80;;;;;;;;;;1034823;28;20383;-53
2021/03/05 01:26:40;;;;;;;9.32;7.20;;;;;;;;;;1035251;28;20065;-50
2021/03/05 01:27:11;;;;;;;9.40;6.43;;;;;;;;;;1035078;28;20097;-50
2021/03/05 01:27:41;;;;;;;9.10;5.83;;;;;;;;;;1033724;28;20061;-50
2021/03/05 01:28:12;;;;;;;9.13;6.07;;;;;;;;;;1036124;28;20357;-50
2021/03/05 01:28:45;;;;;;;9.40;6.35;;;;;;;;;;1032574;28;20375;-50
2021/03/05 01:29:15;;;;;;;10.40;6.20;;;;;;;;;;1035164;28;20025;-53
2021/03/05 01:29:46;;;;;;;9.77;6.77;;;;;;;;;;1034094;28;20069;-53
2021/03/05 01:30:16;;;;;;;9.00;6.80;;;;;;;;;;1035712;28;20025;-52
2021/03/05 01:30:46;;;;;;;9.93;6.23;;;;;;;;;;1034571;28;20026;-51
2021/03/05 01:31:17;;;;;;;10.13;6.33;;;;;;;;;;1033548;28;20370;-49
2021/03/05 01:31:47;;;;;;;10.90;6.73;;;;;;;;;;1035120;28;20382;-49
2021/03/05 01:32:17;;;;;;;9.00;6.53;;;;;;;;;;1035685;28;20013;-50
2021/03/05 01:32:48;;;;;;;8.03;6.20;;;;;;;;;;1034527;28;20015;-50
2021/03/05 01:33:18;;;;;;;8.57;6.40;;;;;;;;;;1033660;28;20015;-49
2021/03/05 01:33:48;;;;;;;8.10;5.87;;;;;;;;;;1034630;28;20018;-50
2021/03/05 01:34:19;;;;;;;8.33;6.30;;;;;;;;;;1035530;28;20481;-50
2021/03/05 01:34:49;;;;;;;9.60;6.10;;;;;;;;;;1034137;28;20113;-51
2021/03/05 01:35:21;;;;;;;8.77;5.97;;;;;;;;;;1033248;28;20422;-49
2021/03/05 01:35:51;;;;;;;8.80;6.30;;;;;;;;;;1032050;28;20025;-52
2021/03/05 01:36:21;;;;;;;11.37;5.97;;;;;;;;;;1032248;28;20163;-48
2021/03/05 01:36:52;;;;;;;8.07;6.13;;;;;;;;;;1027944;28;20050;-49
2021/03/05 01:37:22;;;;;;;10.87;6.30;;;;;;;;;;1025512;28;20449;-53
2021/03/05 01:37:52;;;;;;;9.03;6.43;;;;;;;;;;1036238;28;20183;-50
2021/03/05 01:38:22;;;;;;;8.10;6.43;;;;;;;;;;1033406;28;20034;-50
2021/03/05 01:38:53;;;;;;;8.50;6.63;;;;;;;;;;1033546;28;20542;-49
2021/03/05 01:39:23;;;;;;;11.10;6.63;;;;;;;;;;1034804;28;20006;-49
2021/03/05 01:39:53;;;;;;;9.93;7.00;;;;;;;;;;1035317;28;20065;-51
2021/03/05 01:40:34;;;;;;;10.40;6.80;;;;;;;;;;1033850;28;20113;-49
2021/03/05 01:41:04;;;;;;;9.27;6.32;;;;;;;;;;1033999;28;20060;-50
2021/03/05 01:41:36;;;;;;;9.43;6.60;;;;;;;;;;1033593;28;20021;-51
2021/03/05 01:42:07;;;;;;;8.02;6.47;;;;;;;;;;1034753;28;20014;-50
2021/03/05 01:42:37;;;;;;;9.33;6.60;;;;;;;;;;1034472;28;20065;-50
2021/03/05 01:43:07;;;;;;;11.00;6.63;;;;;;;;;;1034142;28;20074;-50
2021/03/05 01:43:38;;;;;;;9.70;6.67;;;;;;;;;;1033258;28;20018;-50
2021/03/05 01:44:09;;;;;;;10.00;6.37;;;;;;;;;;1030275;28;20019;-50
2021/03/05 01:44:40;;;;;;;8.93;6.75;;;;;;;;;;1035102;28;20095;-50
2021/03/05 01:45:14;;;;;;;9.53;6.10;;;;;;;;;;1034700;28;20027;-53
2021/03/05 01:45:45;;;;;;;11.43;6.50;;;;;;;;;;1032276;28;20014;-52
2021/03/05 01:46:17;;;;;;;9.90;6.27;;;;;;;;;;1035252;28;20066;-50
2021/03/05 01:46:47;;;;;;;8.32;6.43;;;;;;;;;;1034541;28;20613;-52
2021/03/05 01:47:17;;;;;;;8.53;5.90;;;;;;;;;;1033887;28;20114;-49
2021/03/05 01:47:48;;;;;;;7.80;6.43;;;;;;;;;;1034472;28;20064;-50
2021/03/05 01:48:19;;;;;;;9.73;6.80;;;;;;;;;;1035124;28;20014;-50
2021/03/05 01:48:49;;;;;;;9.23;6.60;;;;;;;;;;1034103;28;20456;-48
2021/03/05 01:49:19;;;;;;;8.57;6.40;;;;;;;;;;1033448;28;20010;-50
2021/03/05 01:49:50;;;;;;;9.43;6.20;;;;;;;;;;1034250;28;20061;-50
2021/03/05 01:50:21;;;;;;;8.77;6.47;;;;;;;;;;1034946;28;20120;-51
2021/03/05 01:50:59;;;;;;;10.18;6.78;;;;;;;;;;1035212;28;20019;-52
2021/03/05 01:51:30;;;;;;;7.82;6.18;;;;;;;;;;1034394;28;20022;-51
2021/03/05 01:52:00;;;;;;;12.27;6.53;;;;;;;;;;1035529;28;20010;-51
2021/03/05 01:52:30;;;;;;;9.07;6.23;;;;;;;;;;1032921;28;20100;-56
2021/03/05 01:53:01;;;;;;;8.63;6.17;;;;;;;;;;1034014;28;20415;-51
2021/03/05 01:53:32;;;;;;;9.80;6.40;;;;;;;;;;1033304;28;20018;-51
2021/03/05 01:54:02;;;;;;;8.77;6.50;;;;;;;;;;1033926;28;20450;-50
2021/03/05 01:54:33;;;;;;;10.45;6.43;;;;;;;;;;1034854;28;20104;-50
2021/03/05 01:55:03;;;;;;;7.07;5.70;;;;;;;;;;1034663;28;20470;-52
2021/03/05 01:55:34;;;;;;;8.07;5.97;;;;;;;;;;1033809;28;20011;-50
2021/03/05 01:56:05;;;;;;;10.27;6.27;;;;;;;;;;1033949;28;20018;-51
2021/03/05 01:56:45;;;;;;;9.48;5.82;;;;;;;;;;1035063;28;20154;-51
2021/03/05 01:57:15;;;;;;;;;;;;;;;;;;1035176;28;20014;-50
2021/03/05 01:57:46;;;;;;;9.57;6.57;;;;;;;;;;1034838;28;19909;-51
2021/03/05 01:58:16;;;;;;;10.83;6.40;;;;;;;;;;1033664;28;20022;-53
2021/03/05 01:58:46;;;;;;;11.53;6.90;;;;;;;;;;1033605;28;20018;-51
2021/03/05 01:59:29;;;;;;;10.70;7.23;;;;;;;;;;1034620;28;20101;-51
2021/03/05 01:59:59;;;;;;;8.07;6.40;;;;;;;;;;1032080;28;20082;-49
2021/03/05 02:00:41;;;;;;;8.80;6.40;;;;;;;;;;1032870;28;20094;-50
2021/03/05 02:01:12;;;;;;;9.55;6.50;;;;;;;;;;1033386;28;20118;-50
2021/03/05 02:01:42;;;;;;;8.60;6.13;;;;;;;;;;1034104;28;20022;-51
2021/03/05 02:02:12;;;;;;;7.80;6.27;;;;;;;;;;1034913;28;20020;-52
2021/03/05 02:02:43;;;;;;;7.70;5.97;;;;;;;;;;1034654;28;20030;-48
2021/03/05 02:03:13;;;;;;;8.63;6.07;;;;;;;;;;1033338;28;20130;-53
2021/03/05 02:03:43;;;;;;;10.97;6.27;;;;;;;;;;1033487;28;20073;-51
2021/03/05 02:04:13;;;;;;;8.40;6.10;;;;;;;;;;1035044;28;20036;-52
2021/03/05 02:04:44;;;;;;;9.80;6.67;;;;;;;;;;1034967;28;20006;-49
2021/03/05 02:05:14;;;;;;;8.13;6.00;;;;;;;;;;1033758;28;20014;-49
2021/03/05 02:05:45;;;;;;;8.70;6.10;;;;;;;;;;1033669;28;20009;-50
2021/03/05 02:06:15;;;;;;;8.20;6.43;;;;;;;;;;1035031;28;20014;-50
2021/03/05 02:06:45;;;;;;;7.40;6.40;;;;;;;;;;1030585;28;20011;-49
2021/03/05 02:07:15;;;;;;;8.40;6.57;;;;;;;;;;1029783;28;20025;-50
2021/03/05 02:07:46;;;;;;;9.17;6.00;;;;;;;;;;1029598;28;20014;-51
2021/03/05 02:08:16;;;;;;;8.30;6.60;;;;;;;;;;1031084;28;20064;-53
2021/03/05 02:08:46;;;;;;;11.60;6.93;;;;;;;;;;1035483;28;20020;-52
2021/03/05 02:09:17;;;;;;;11.50;7.00;;;;;;;;;;1034120;28;20506;-52
2021/03/05 02:09:47;;;;;;;10.47;6.73;;;;;;;;;;1034040;28;20151;-52
2021/03/05 02:10:17;;;;;;;9.33;6.80;;;;;;;;;;1034882;28;20036;-52
2021/03/05 02:10:48;;;;;;;9.57;7.20;;;;;;;;;;1035274;28;20140;-49
2021/03/05 02:11:21;;;;;;;9.93;7.37;;;;;;;;;;1034209;28;20093;-50
2021/03/05 02:11:51;;;;;;;9.93;6.78;;;;;;;;;;1033800;28;20037;-49
2021/03/05 02:12:22;;;;;;;9.67;7.03;;;;;;;;;;1034344;28;20032;-49
2021/03/05 02:12:52;;;;;;;9.50;7.10;;;;;;;;;;1035032;28;20006;-50
2021/03/05 02:13:23;;;;;;;10.50;7.63;;;;;;;;;;1034390;28;20021;-52
2021/03/05 02:13:54;;;;;;;11.00;7.27;;;;;;;;;;1034143;28;20023;-49
2021/03/05 02:14:24;;;;;;;10.95;7.53;;;;;;;;;;1034260;28;20014;-52
2021/03/05 02:14:54;;;;;;;10.07;7.60;;;;;;;;;;1035368;28;20431;-50
2021/03/05 02:15:24;;;;;;;10.70;7.50;;;;;;;;;;1034417;28;20081;-50
2021/03/05 02:15:55;;;;;;;9.57;7.17;;;;;;;;;;1033434;28;20010;-50
2021/03/05 02:16:44;;;;;;;11.17;7.83;;;;;;;;;;1033634;28;20014;-50
2021/03/05 02:17:20;;;;;;;10.63;7.38;;;;;;;;;;1034595;28;20006;-51
2021/03/05 02:17:53;;;;;;;10.20;7.70;;;;;;;;;;1033821;28;20061;-51
2021/03/05 02:18:27;;;;;;;12.82;7.80;;;;;;;;;;1034081;28;20013;-50
2021/03/05 02:19:00;;;;;;;10.50;8.10;;;;;;;;;;1034178;28;20021;-52
2021/03/05 02:19:48;;;;;;;10.98;7.63;;;;;;;;;;1033510;28;20462;-51
2021/03/05 02:20:29;;;;;;;10.95;7.53;;;;;;;;;;1033803;28;20130;-50
2021/03/05 02:21:35;;;;;;;10.35;7.82;;;;;;;;;;1030205;28;20007;-49
2021/03/05 02:22:11;;;;;;;10.55;7.15;;;;;;;;;;1030617;28;20054;-49
2021/03/05 02:22:57;;;;;;;10.65;7.68;;;;;;;;;;1030089;28;20062;-49
2021/03/05 02:23:39;;;;;;;10.43;8.43;;;;;;;;;;1027747;28;20065;-53
2021/03/05 02:24:16;;;;;;;11.43;8.00;;;;;;;;;;1030525;28;20007;-50
2021/03/05 02:24:46;;;;;;;12.25;7.95;;;;;;;;;;1030687;28;21885;-49
2021/03/05 02:25:35;;;;;;;11.73;8.13;;;;;;;;;;1035332;28;20018;-52
2021/03/05 02:26:24;;;;;;;11.95;8.48;;;;;;;;;;1035151;28;20014;-50
2021/03/05 02:27:13;;;;;;;11.27;8.93;;;;;;;;;;1035271;28;20014;-51
2021/03/05 02:28:09;;;;;;;11.02;8.23;;;;;;;;;;1035123;28;20025;-52
2021/03/05 02:28:49;;;;;;;12.00;8.55;;;;;;;;;;1034416;28;20028;-49
2021/03/05 02:29:25;;;;;;;11.00;8.88;;;;;;;;;;1036773;28;20025;-50
2021/03/05 02:30:14;;;;;;;12.15;7.82;;;;;;;;;;1033313;28;20014;-49
2021/03/05 02:30:53;;;;;;;13.77;8.80;;;;;;;;;;1034407;28;20010;-49
2021/03/05 02:31:27;;;;;;;13.98;8.65;;;;;;;;;;1034686;28;20014;-50
2021/03/05 02:32:23;;;;;;;13.15;8.85;;;;;;;;;;1033942;28;20558;-50
2021/03/05 02:32:55;;;;;;;14.10;9.00;;;;;;;;;;1032898;28;20036;-50
2021/03/05 02:33:41;;;;;;;12.38;9.00;;;;;;;;;;1031763;28;20068;-50
2021/03/05 02:34:19;;;;;;;12.77;8.82;;;;;;;;;;1030576;28;20011;-49
2021/03/05 02:34:49;;;;;;;13.63;9.77;;;;;;;;;;1030800;28;20014;-50
2021/03/05 02:35:20;;;;;;;15.13;9.73;;;;;;;;;;1028925;28;20030;-49
2021/03/05 02:35:50;;;;;;;11.90;9.10;;;;;;;;;;1025413;28;20049;-50
2021/03/05 02:36:28;;;;;;;13.77;9.50;;;;;;;;;;1026268;28;20061;-51
2021/03/05 02:36:59;;;;;;;14.73;9.85;;;;;;;;;;1026464;28;20098;-50
2021/03/05 02:37:30;;;;;;;11.27;9.57;;;;;;;;;;1028943;28;20011;-49
2021/03/05 02:38:01;;;;;;;13.73;9.65;;;;;;;;;;1026220;28;20088;-50
2021/03/05 02:38:32;;;;;;;14.23;9.70;;;;;;;;;;1026685;28;20055;-51
2021/03/05 02:39:10;;;;;;;14.47;9.70;;;;;;;;;;1026078;28;20326;-51
2021/03/05 02:39:58;;;;;;;14.45;10.05;;;;;;;;;;1027252;28;20440;-50
2021/03/05 02:40:32;;;;;;;16.33;9.93;;;;;;;;;;1031569;28;20022;-49
2021/03/05 02:41:03;;;;;;;13.90;9.70;;;;;;;;;;1030476;28;20043;-50
2021/03/05 02:41:34;;;;;;;15.07;9.90;;;;;;;;;;1032066;28;20065;-52
2021/03/05 02:42:05;;;;;;;17.05;10.23;;;;;;;;;;1032218;28;20079;-50
2021/03/05 02:42:46;;;;;;;12.93;10.17;;;;;;;;;;1031555;28;20014;-49
2021/03/05 02:43:17;;;;;;;15.98;11.20;;;;;;;;;;1029451;28;20069;-58
2021/03/05 02:43:47;;;;;;;13.63;9.73;;;;;;;;;;1029096;28;20015;-53
2021/03/05 02:44:22;;;;;;;15.83;10.33;;;;;;;;;;1030396;28;20097;-49
2021/03/05 02:44:55;;;;;;;13.80;10.77;;;;;;;;;;1027107;28;20011;-50
2021/03/05 02:45:26;;;;;;;13.40;10.13;;;;;;;;;;1022556;28;20022;-49
2021/03/05 02:46:00;;;;;;;13.68;10.20;;;;;;;;;;1025447;28;20082;-49
2021/03/05 02:46:31;;;;;;;16.23;10.85;;;;;;;;;;1026501;28;20396;-49
2021/03/05 02:47:02;;;;;;;16.40;9.83;;;;;;;;;;1030574;28;20018;-49
2021/03/05 02:47:32;;;;;;;15.80;10.73;;;;;;;;;;1030693;28;20041;-49
2021/03/05 02:48:07;;;;;;;14.97;11.87;;;;;;;;;;1030327;28;20022;-49
2021/03/05 02:48:40;;;;;;;18.33;12.15;;;;;;;;;;1022576;28;20024;-52
2021/03/05 02:49:11;;;;;;;16.10;12.05;;;;;;;;;;1029113;28;20131;-48
2021/03/05 02:49:42;;;;;;;17.45;11.90;;;;;;;;;;1031905;28;20022;-49
2021/03/05 02:50:15;;;;;;;16.90;11.60;;;;;;;;;;1031337;28;20018;-49
2021/03/05 02:50:47;;;;;;;15.98;11.07;;;;;;;;;;1030044;28;20019;-49
2021/03/05 02:51:17;;;;;;;17.77;11.75;;;;;;;;;;1024004;29;20411;-52
2021/03/05 02:51:48;;;;;;;13.87;10.70;;;;;;;;;;1024730;28;20015;-50
2021/03/05 02:52:19;;;;;;;17.50;12.30;;;;;;;;;;1028123;28;20021;-50
2021/03/05 02:52:51;;;;;;;15.77;10.85;;;;;;;;;;1028454;28;20078;-50
2021/03/05 02:53:22;;;;;;;14.25;11.82;;;;;;;;;;1036076;28;20026;-49
2021/03/05 02:53:52;;;;;;;18.00;11.07;;;;;;;;;;1031303;28;20014;-50
2021/03/05 02:54:22;;;;;;;16.53;11.60;;;;;;;;;;1026211;28;20047;-49
2021/03/05 02:54:54;;;;;;;15.30;10.70;;;;;;;;;;1021504;29;20016;-49
2021/03/05 02:55:24;;;;;;;16.45;11.75;;;;;;;;;;1021659;29;20031;-49
2021/03/05 02:55:55;;;;;;;19.03;11.37;;;;;;;;;;1019481;29;20012;-49
2021/03/05 02:56:26;;;;;;;16.23;11.32;;;;;;;;;;1020048;29;20034;-49
2021/03/05 02:56:56;;;;;;;20.17;11.97;;;;;;;;;;1020317;29;20035;-49
2021/03/05 02:57:29;;;;;;;15.80;11.03;;;;;;;;;;1020288;29;20028;-49
2021/03/05 02:57:59;;;;;;;19.63;11.65;;;;;;;;;;1020152;29;20100;-49
2021/03/05 02:58:29;;;;;;;17.27;11.83;;;;;;;;;;1026783;28;20606;-53
2021/03/05 02:59:00;;;;;;;18.10;12.03;;;;;;;;;;1026181;28;20022;-50
2021/03/05 02:59:31;;;;;;;19.00;12.20;;;;;;;;;;1031988;28;20109;-51
2021/03/05 03:00:02;;;;;;;14.13;11.13;;;;;;;;;;1028259;28;20108;-49
2021/03/05 03:00:33;;;;;;;18.67;11.75;;;;;;;;;;1028120;28;20494;-49
2021/03/05 03:01:03;;;;;;;16.33;11.87;;;;;;;;;;1026066;28;20022;-50
2021/03/05 03:01:33;;;;;;;16.30;11.73;;;;;;;;;;1022660;29;20019;-49
2021/03/05 03:02:04;;;;;;;16.43;11.73;;;;;;;;;;1024309;29;20023;-49
2021/03/05 03:02:34;;;;;;;18.07;12.73;;;;;;;;;;1023836;29;20011;-50
2021/03/05 03:03:04;;;;;;;16.43;12.60;;;;;;;;;;1028132;28;20022;-51
2021/03/05 03:03:34;;;;;;;18.23;12.20;;;;;;;;;;1027491;28;20027;-51
2021/03/05 03:04:05;;;;;;;18.60;12.70;;;;;;;;;;1026183;28;20019;-49
2021/03/05 03:04:35;;;;;;;17.70;13.10;;;;;;;;;;1026719;28;20109;-49
2021/03/05 03:05:06;;;;;;;16.90;11.63;;;;;;;;;;1022535;29;20024;-49
2021/03/05 03:05:36;;;;;;;15.70;12.00;;;;;;;;;;1025002;28;20019;-50
2021/03/05 03:06:09;;;;;;;15.60;11.67;;;;;;;;;;1021765;29;20158;-51
2021/03/05 03:06:39;;;;;;;17.60;12.68;;;;;;;;;;1024454;28;20058;-50
2021/03/05 03:07:10;;;;;;;15.23;11.30;;;;;;;;;;1027982;28;20081;-50
2021/03/05 03:07:40;;;;;;;15.97;11.53;;;;;;;;;;1027950;28;20023;-50